sensor_id;sensor_type;location;lat;lon;timestamp;P1;durP1;ratioP1;P2;durP2;ratioP2
9716;SDS011;4897;43.570;27.832;2024-03-07T00:01:18;47.92;;;40.95;;
9716;SDS011;4897;43.570;27.832;2024-03-07T00:03:45;44.90;;;39.45;;
9716;SDS011;4897;43.570;27.832;2024-03-07T00:06:12;54.28;;;38.85;;
9716;SDS011;4897;43.570;27.832;2024-03-07T00:08:39;47.33;;;39.55;;
9716;SDS011;4897;43.570;27.832;2024-03-07T00:11:06;43.03;;;38.42;;
9716;SDS011;4897;43.570;27.832;2024-03-07T00:13:35;46.17;;;39.22;;
9716;SDS011;4897;43.570;27.832;2024-03-07T00:16:02;49.10;;;40.50;;
9716;SDS011;4897;43.570;27.832;2024-03-07T00:18:30;51.65;;;43.72;;
9716;SDS011;4897;43.570;27.832;2024-03-07T00:20:57;45.75;;;39.60;;
9716;SDS011;4897;43.570;27.832;2024-03-07T00:23:24;48.38;;;41.50;;
9716;SDS011;4897;43.570;27.832;2024-03-07T00:25:52;57.35;;;42.88;;
9716;SDS011;4897;43.570;27.832;2024-03-07T00:28:19;49.00;;;40.97;;
9716;SDS011;4897;43.570;27.832;2024-03-07T00:30:47;50.13;;;43.15;;
9716;SDS011;4897;43.570;27.832;2024-03-07T00:33:14;57.03;;;49.67;;
9716;SDS011;4897;43.570;27.832;2024-03-07T00:35:41;53.65;;;47.95;;
9716;SDS011;4897;43.570;27.832;2024-03-07T00:38:09;56.47;;;49.33;;
9716;SDS011;4897;43.570;27.832;2024-03-07T00:40:36;56.40;;;47.05;;
9716;SDS011;4897;43.570;27.832;2024-03-07T00:43:03;56.35;;;48.45;;
9716;SDS011;4897;43.570;27.832;2024-03-07T00:45:31;49.28;;;43.95;;
9716;SDS011;4897;43.570;27.832;2024-03-07T00:48:00;50.72;;;43.80;;
9716;SDS011;4897;43.570;27.832;2024-03-07T00:50:28;48.90;;;43.58;;
9716;SDS011;4897;43.570;27.832;2024-03-07T00:52:56;50.47;;;45.03;;
9716;SDS011;4897;43.570;27.832;2024-03-07T00:55:23;55.47;;;45.03;;
9716;SDS011;4897;43.570;27.832;2024-03-07T00:57:50;57.92;;;43.15;;
9716;SDS011;4897;43.570;27.832;2024-03-07T01:00:17;58.45;;;46.22;;
9716;SDS011;4897;43.570;27.832;2024-03-07T01:02:46;52.75;;;44.25;;
9716;SDS011;4897;43.570;27.832;2024-03-07T01:05:15;52.92;;;47.33;;
9716;SDS011;4897;43.570;27.832;2024-03-07T01:07:42;61.15;;;49.88;;
9716;SDS011;4897;43.570;27.832;2024-03-07T01:10:11;97.45;;;65.68;;
9716;SDS011;4897;43.570;27.832;2024-03-07T01:12:39;65.57;;;48.55;;
9716;SDS011;4897;43.570;27.832;2024-03-07T01:15:06;55.60;;;44.75;;
9716;SDS011;4897;43.570;27.832;2024-03-07T01:17:34;50.42;;;42.72;;
9716;SDS011;4897;43.570;27.832;2024-03-07T01:20:00;47.92;;;39.58;;
9716;SDS011;4897;43.570;27.832;2024-03-07T01:22:29;49.50;;;41.38;;
9716;SDS011;4897;43.570;27.832;2024-03-07T01:24:56;53.08;;;44.10;;
9716;SDS011;4897;43.570;27.832;2024-03-07T01:27:23;45.67;;;38.50;;
9716;SDS011;4897;43.570;27.832;2024-03-07T01:29:50;50.67;;;38.95;;
9716;SDS011;4897;43.570;27.832;2024-03-07T01:32:18;44.85;;;38.67;;
9716;SDS011;4897;43.570;27.832;2024-03-07T01:34:45;44.08;;;31.15;;
9716;SDS011;4897;43.570;27.832;2024-03-07T01:37:12;48.38;;;32.38;;
9716;SDS011;4897;43.570;27.832;2024-03-07T01:39:40;43.38;;;31.30;;
9716;SDS011;4897;43.570;27.832;2024-03-07T01:42:07;51.50;;;41.20;;
9716;SDS011;4897;43.570;27.832;2024-03-07T01:44:34;77.00;;;64.85;;
9716;SDS011;4897;43.570;27.832;2024-03-07T01:47:01;65.45;;;58.60;;
9716;SDS011;4897;43.570;27.832;2024-03-07T01:49:29;72.50;;;58.72;;
9716;SDS011;4897;43.570;27.832;2024-03-07T01:51:56;60.97;;;54.30;;
9716;SDS011;4897;43.570;27.832;2024-03-07T01:54:23;62.28;;;50.83;;
9716;SDS011;4897;43.570;27.832;2024-03-07T01:56:54;59.47;;;48.92;;
9716;SDS011;4897;43.570;27.832;2024-03-07T01:59:22;56.10;;;45.75;;
9716;SDS011;4897;43.570;27.832;2024-03-07T02:01:49;51.42;;;42.05;;
9716;SDS011;4897;43.570;27.832;2024-03-07T02:04:17;50.78;;;44.53;;
9716;SDS011;4897;43.570;27.832;2024-03-07T02:06:44;52.22;;;41.55;;
9716;SDS011;4897;43.570;27.832;2024-03-07T02:09:11;56.58;;;43.13;;
9716;SDS011;4897;43.570;27.832;2024-03-07T02:11:39;51.30;;;45.22;;
9716;SDS011;4897;43.570;27.832;2024-03-07T02:14:07;48.92;;;41.35;;
9716;SDS011;4897;43.570;27.832;2024-03-07T02:16:34;54.33;;;45.42;;
9716;SDS011;4897;43.570;27.832;2024-03-07T02:19:01;53.38;;;47.50;;
9716;SDS011;4897;43.570;27.832;2024-03-07T02:21:31;66.80;;;50.10;;
9716;SDS011;4897;43.570;27.832;2024-03-07T02:23:58;54.95;;;48.38;;
9716;SDS011;4897;43.570;27.832;2024-03-07T02:26:25;54.97;;;46.80;;
9716;SDS011;4897;43.570;27.832;2024-03-07T02:28:52;55.72;;;44.83;;
9716;SDS011;4897;43.570;27.832;2024-03-07T02:31:19;54.50;;;44.88;;
9716;SDS011;4897;43.570;27.832;2024-03-07T02:33:53;53.17;;;44.17;;
9716;SDS011;4897;43.570;27.832;2024-03-07T02:36:20;52.60;;;42.88;;
9716;SDS011;4897;43.570;27.832;2024-03-07T02:38:49;55.22;;;43.95;;
9716;SDS011;4897;43.570;27.832;2024-03-07T02:41:16;56.55;;;44.50;;
9716;SDS011;4897;43.570;27.832;2024-03-07T02:43:43;50.35;;;44.83;;
9716;SDS011;4897;43.570;27.832;2024-03-07T02:46:10;60.15;;;48.47;;
9716;SDS011;4897;43.570;27.832;2024-03-07T02:48:37;64.07;;;52.67;;
9716;SDS011;4897;43.570;27.832;2024-03-07T02:51:05;60.90;;;53.25;;
9716;SDS011;4897;43.570;27.832;2024-03-07T02:53:32;64.55;;;56.35;;
9716;SDS011;4897;43.570;27.832;2024-03-07T02:56:00;66.10;;;58.00;;
9716;SDS011;4897;43.570;27.832;2024-03-07T02:58:27;60.47;;;51.30;;
9716;SDS011;4897;43.570;27.832;2024-03-07T03:00:56;63.30;;;52.97;;
9716;SDS011;4897;43.570;27.832;2024-03-07T03:03:24;62.05;;;48.20;;
9716;SDS011;4897;43.570;27.832;2024-03-07T03:05:52;59.00;;;47.10;;
9716;SDS011;4897;43.570;27.832;2024-03-07T03:08:21;62.22;;;48.20;;
9716;SDS011;4897;43.570;27.832;2024-03-07T03:10:49;56.40;;;43.50;;
9716;SDS011;4897;43.570;27.832;2024-03-07T03:13:17;59.72;;;47.75;;
9716;SDS011;4897;43.570;27.832;2024-03-07T03:15:44;57.28;;;45.80;;
9716;SDS011;4897;43.570;27.832;2024-03-07T03:18:12;56.72;;;49.38;;
9716;SDS011;4897;43.570;27.832;2024-03-07T03:20:38;60.00;;;49.05;;
9716;SDS011;4897;43.570;27.832;2024-03-07T03:23:06;64.88;;;49.58;;
9716;SDS011;4897;43.570;27.832;2024-03-07T03:25:36;60.47;;;51.47;;
9716;SDS011;4897;43.570;27.832;2024-03-07T03:28:03;70.47;;;50.60;;
9716;SDS011;4897;43.570;27.832;2024-03-07T03:30:36;60.33;;;51.67;;
9716;SDS011;4897;43.570;27.832;2024-03-07T03:33:04;57.85;;;45.63;;
9716;SDS011;4897;43.570;27.832;2024-03-07T03:35:31;65.30;;;47.03;;
9716;SDS011;4897;43.570;27.832;2024-03-07T03:37:58;61.65;;;41.80;;
9716;SDS011;4897;43.570;27.832;2024-03-07T03:40:26;60.50;;;42.47;;
9716;SDS011;4897;43.570;27.832;2024-03-07T03:42:53;51.30;;;34.78;;
9716;SDS011;4897;43.570;27.832;2024-03-07T03:45:20;69.03;;;56.08;;
9716;SDS011;4897;43.570;27.832;2024-03-07T03:47:48;49.65;;;34.15;;
9716;SDS011;4897;43.570;27.832;2024-03-07T03:50:15;54.70;;;38.95;;
9716;SDS011;4897;43.570;27.832;2024-03-07T03:52:43;65.45;;;51.97;;
9716;SDS011;4897;43.570;27.832;2024-03-07T03:55:10;77.53;;;55.22;;
9716;SDS011;4897;43.570;27.832;2024-03-07T03:57:38;75.95;;;59.13;;
9716;SDS011;4897;43.570;27.832;2024-03-07T04:00:07;74.18;;;59.33;;
9716;SDS011;4897;43.570;27.832;2024-03-07T04:02:38;73.45;;;57.38;;
9716;SDS011;4897;43.570;27.832;2024-03-07T04:05:08;85.45;;;57.03;;
9716;SDS011;4897;43.570;27.832;2024-03-07T04:07:37;73.70;;;56.95;;
9716;SDS011;4897;43.570;27.832;2024-03-07T04:10:07;71.88;;;59.72;;
9716;SDS011;4897;43.570;27.832;2024-03-07T04:12:35;78.80;;;57.75;;
9716;SDS011;4897;43.570;27.832;2024-03-07T04:15:03;75.53;;;58.42;;
9716;SDS011;4897;43.570;27.832;2024-03-07T04:17:30;73.47;;;53.22;;
9716;SDS011;4897;43.570;27.832;2024-03-07T04:19:59;68.95;;;48.75;;
9716;SDS011;4897;43.570;27.832;2024-03-07T04:22:27;67.60;;;50.80;;
9716;SDS011;4897;43.570;27.832;2024-03-07T04:24:54;64.20;;;48.03;;
9716;SDS011;4897;43.570;27.832;2024-03-07T04:27:24;65.00;;;53.10;;
9716;SDS011;4897;43.570;27.832;2024-03-07T04:29:52;69.78;;;53.80;;
9716;SDS011;4897;43.570;27.832;2024-03-07T04:32:19;69.82;;;52.35;;
9716;SDS011;4897;43.570;27.832;2024-03-07T04:34:46;73.55;;;55.78;;
9716;SDS011;4897;43.570;27.832;2024-03-07T04:37:14;84.47;;;50.25;;
9716;SDS011;4897;43.570;27.832;2024-03-07T04:39:42;83.93;;;51.42;;
9716;SDS011;4897;43.570;27.832;2024-03-07T04:42:09;91.85;;;54.75;;
9716;SDS011;4897;43.570;27.832;2024-03-07T04:44:36;91.32;;;54.33;;
9716;SDS011;4897;43.570;27.832;2024-03-07T04:47:04;99.15;;;58.53;;
9716;SDS011;4897;43.570;27.832;2024-03-07T04:49:32;113.07;;;66.85;;
9716;SDS011;4897;43.570;27.832;2024-03-07T04:52:00;129.63;;;67.55;;
9716;SDS011;4897;43.570;27.832;2024-03-07T04:54:28;118.28;;;66.00;;
9716;SDS011;4897;43.570;27.832;2024-03-07T04:56:58;119.45;;;63.72;;
9716;SDS011;4897;43.570;27.832;2024-03-07T04:59:25;138.88;;;77.25;;
9716;SDS011;4897;43.570;27.832;2024-03-07T05:01:52;162.52;;;84.95;;
9716;SDS011;4897;43.570;27.832;2024-03-07T05:04:19;162.35;;;89.32;;
9716;SDS011;4897;43.570;27.832;2024-03-07T05:06:48;130.20;;;74.63;;
9716;SDS011;4897;43.570;27.832;2024-03-07T05:09:15;82.95;;;57.00;;
9716;SDS011;4897;43.570;27.832;2024-03-07T05:11:51;121.97;;;67.57;;
9716;SDS011;4897;43.570;27.832;2024-03-07T05:14:21;123.00;;;69.22;;
9716;SDS011;4897;43.570;27.832;2024-03-07T05:16:50;124.68;;;72.65;;
9716;SDS011;4897;43.570;27.832;2024-03-07T05:19:30;171.63;;;94.35;;
9716;SDS011;4897;43.570;27.832;2024-03-07T05:21:58;147.55;;;78.78;;
9716;SDS011;4897;43.570;27.832;2024-03-07T05:24:25;117.43;;;66.78;;
9716;SDS011;4897;43.570;27.832;2024-03-07T05:26:52;134.52;;;74.00;;
9716;SDS011;4897;43.570;27.832;2024-03-07T05:29:19;127.53;;;65.85;;
9716;SDS011;4897;43.570;27.832;2024-03-07T05:31:52;117.43;;;58.33;;
9716;SDS011;4897;43.570;27.832;2024-03-07T05:34:19;125.28;;;68.38;;
9716;SDS011;4897;43.570;27.832;2024-03-07T05:36:48;117.43;;;67.88;;
9716;SDS011;4897;43.570;27.832;2024-03-07T05:39:16;107.75;;;64.30;;
9716;SDS011;4897;43.570;27.832;2024-03-07T05:41:44;98.53;;;58.35;;
9716;SDS011;4897;43.570;27.832;2024-03-07T05:44:17;103.18;;;55.97;;
9716;SDS011;4897;43.570;27.832;2024-03-07T05:46:46;89.70;;;54.03;;
9716;SDS011;4897;43.570;27.832;2024-03-07T05:49:13;80.45;;;51.97;;
9716;SDS011;4897;43.570;27.832;2024-03-07T05:51:42;81.40;;;52.55;;
9716;SDS011;4897;43.570;27.832;2024-03-07T05:54:10;112.13;;;70.47;;
9716;SDS011;4897;43.570;27.832;2024-03-07T05:56:38;125.30;;;71.60;;
9716;SDS011;4897;43.570;27.832;2024-03-07T05:59:08;110.75;;;69.13;;
9716;SDS011;4897;43.570;27.832;2024-03-07T06:01:36;124.53;;;72.95;;
9716;SDS011;4897;43.570;27.832;2024-03-07T06:04:07;139.93;;;80.85;;
9716;SDS011;4897;43.570;27.832;2024-03-07T06:06:36;164.23;;;94.85;;
9716;SDS011;4897;43.570;27.832;2024-03-07T06:09:03;138.48;;;85.30;;
9716;SDS011;4897;43.570;27.832;2024-03-07T06:11:32;123.93;;;73.72;;
9716;SDS011;4897;43.570;27.832;2024-03-07T06:14:00;121.60;;;66.88;;
9716;SDS011;4897;43.570;27.832;2024-03-07T06:16:28;100.47;;;60.85;;
9716;SDS011;4897;43.570;27.832;2024-03-07T06:18:58;112.47;;;63.05;;
9716;SDS011;4897;43.570;27.832;2024-03-07T06:21:28;99.20;;;55.17;;
9716;SDS011;4897;43.570;27.832;2024-03-07T06:23:55;94.57;;;55.60;;
9716;SDS011;4897;43.570;27.832;2024-03-07T06:26:28;91.95;;;57.88;;
9716;SDS011;4897;43.570;27.832;2024-03-07T06:29:11;99.40;;;61.03;;
9716;SDS011;4897;43.570;27.832;2024-03-07T06:31:38;92.97;;;69.50;;
9716;SDS011;4897;43.570;27.832;2024-03-07T06:34:06;84.18;;;61.05;;
9716;SDS011;4897;43.570;27.832;2024-03-07T06:36:35;64.60;;;50.28;;
9716;SDS011;4897;43.570;27.832;2024-03-07T06:39:02;48.83;;;40.85;;
9716;SDS011;4897;43.570;27.832;2024-03-07T06:41:32;43.42;;;37.90;;
9716;SDS011;4897;43.570;27.832;2024-03-07T06:44:00;42.88;;;38.33;;
9716;SDS011;4897;43.570;27.832;2024-03-07T06:46:27;42.88;;;35.63;;
9716;SDS011;4897;43.570;27.832;2024-03-07T06:48:54;40.40;;;35.85;;
9716;SDS011;4897;43.570;27.832;2024-03-07T06:55:57;43.45;;;34.50;;
9716;SDS011;4897;43.570;27.832;2024-03-07T06:58:24;43.33;;;32.55;;
9716;SDS011;4897;43.570;27.832;2024-03-07T07:00:51;39.25;;;31.50;;
9716;SDS011;4897;43.570;27.832;2024-03-07T07:03:19;45.15;;;28.35;;
9716;SDS011;4897;43.570;27.832;2024-03-07T07:05:47;36.10;;;26.17;;
9716;SDS011;4897;43.570;27.832;2024-03-07T07:08:15;35.90;;;27.70;;
9716;SDS011;4897;43.570;27.832;2024-03-07T07:10:42;53.20;;;27.70;;
9716;SDS011;4897;43.570;27.832;2024-03-07T07:13:10;37.78;;;25.58;;
9716;SDS011;4897;43.570;27.832;2024-03-07T07:15:38;30.88;;;25.10;;
9716;SDS011;4897;43.570;27.832;2024-03-07T07:18:06;40.45;;;26.55;;
9716;SDS011;4897;43.570;27.832;2024-03-07T07:20:33;37.05;;;25.65;;
9716;SDS011;4897;43.570;27.832;2024-03-07T07:23:00;36.88;;;26.17;;
9716;SDS011;4897;43.570;27.832;2024-03-07T07:25:28;37.72;;;27.52;;
9716;SDS011;4897;43.570;27.832;2024-03-07T07:27:57;30.58;;;27.33;;
9716;SDS011;4897;43.570;27.832;2024-03-07T07:30:31;41.00;;;29.05;;
9716;SDS011;4897;43.570;27.832;2024-03-07T07:32:58;36.22;;;26.15;;
9716;SDS011;4897;43.570;27.832;2024-03-07T07:35:25;28.92;;;24.30;;
9716;SDS011;4897;43.570;27.832;2024-03-07T07:37:52;34.95;;;26.63;;
9716;SDS011;4897;43.570;27.832;2024-03-07T07:40:21;38.33;;;27.65;;
9716;SDS011;4897;43.570;27.832;2024-03-07T07:42:52;39.70;;;26.27;;
9716;SDS011;4897;43.570;27.832;2024-03-07T07:45:21;34.63;;;24.05;;
9716;SDS011;4897;43.570;27.832;2024-03-07T07:47:50;33.78;;;25.98;;
9716;SDS011;4897;43.570;27.832;2024-03-07T07:50:18;34.65;;;25.13;;
9716;SDS011;4897;43.570;27.832;2024-03-07T07:52:47;28.90;;;24.73;;
9716;SDS011;4897;43.570;27.832;2024-03-07T07:55:15;31.45;;;22.85;;
9716;SDS011;4897;43.570;27.832;2024-03-07T07:57:43;29.65;;;23.67;;
9716;SDS011;4897;43.570;27.832;2024-03-07T08:00:11;33.30;;;24.00;;
9716;SDS011;4897;43.570;27.832;2024-03-07T08:02:46;29.52;;;23.38;;
9716;SDS011;4897;43.570;27.832;2024-03-07T08:05:16;40.15;;;22.48;;
9716;SDS011;4897;43.570;27.832;2024-03-07T08:07:44;31.58;;;24.80;;
9716;SDS011;4897;43.570;27.832;2024-03-07T08:10:15;30.63;;;24.60;;
9716;SDS011;4897;43.570;27.832;2024-03-07T08:12:42;43.75;;;32.70;;
9716;SDS011;4897;43.570;27.832;2024-03-07T08:15:09;33.65;;;25.15;;
9716;SDS011;4897;43.570;27.832;2024-03-07T08:17:42;35.47;;;24.63;;
9716;SDS011;4897;43.570;27.832;2024-03-07T08:20:12;36.45;;;25.88;;
9716;SDS011;4897;43.570;27.832;2024-03-07T08:22:40;38.22;;;26.02;;
9716;SDS011;4897;43.570;27.832;2024-03-07T08:25:08;32.42;;;26.13;;
9716;SDS011;4897;43.570;27.832;2024-03-07T08:27:37;27.45;;;23.88;;
9716;SDS011;4897;43.570;27.832;2024-03-07T08:30:06;36.35;;;26.13;;
9716;SDS011;4897;43.570;27.832;2024-03-07T08:32:38;58.13;;;40.90;;
9716;SDS011;4897;43.570;27.832;2024-03-07T08:35:06;30.45;;;26.63;;
9716;SDS011;4897;43.570;27.832;2024-03-07T08:37:36;35.53;;;25.83;;
9716;SDS011;4897;43.570;27.832;2024-03-07T08:40:05;34.22;;;25.27;;
9716;SDS011;4897;43.570;27.832;2024-03-07T08:42:35;34.53;;;25.55;;
9716;SDS011;4897;43.570;27.832;2024-03-07T08:45:03;29.92;;;26.77;;
9716;SDS011;4897;43.570;27.832;2024-03-07T08:47:36;30.50;;;25.52;;
9716;SDS011;4897;43.570;27.832;2024-03-07T08:50:04;36.00;;;24.85;;
9716;SDS011;4897;43.570;27.832;2024-03-07T08:52:33;34.60;;;27.05;;
9716;SDS011;4897;43.570;27.832;2024-03-07T08:55:03;31.40;;;25.00;;
9716;SDS011;4897;43.570;27.832;2024-03-07T08:57:31;30.20;;;26.42;;
9716;SDS011;4897;43.570;27.832;2024-03-07T08:59:58;28.70;;;25.77;;
9716;SDS011;4897;43.570;27.832;2024-03-07T09:02:26;29.00;;;25.98;;
9716;SDS011;4897;43.570;27.832;2024-03-07T09:04:53;33.58;;;27.65;;
9716;SDS011;4897;43.570;27.832;2024-03-07T09:07:21;31.67;;;28.20;;
9716;SDS011;4897;43.570;27.832;2024-03-07T09:09:48;32.00;;;27.25;;
9716;SDS011;4897;43.570;27.832;2024-03-07T09:12:17;29.20;;;26.02;;
9716;SDS011;4897;43.570;27.832;2024-03-07T09:14:45;37.03;;;28.10;;
9716;SDS011;4897;43.570;27.832;2024-03-07T09:17:12;30.98;;;27.77;;
9716;SDS011;4897;43.570;27.832;2024-03-07T09:19:39;29.73;;;26.42;;
9716;SDS011;4897;43.570;27.832;2024-03-07T09:22:06;31.00;;;27.65;;
9716;SDS011;4897;43.570;27.832;2024-03-07T09:24:34;36.10;;;30.65;;
9716;SDS011;4897;43.570;27.832;2024-03-07T09:27:04;33.97;;;27.13;;
9716;SDS011;4897;43.570;27.832;2024-03-07T09:29:33;29.60;;;25.77;;
9716;SDS011;4897;43.570;27.832;2024-03-07T09:32:00;35.28;;;27.13;;
9716;SDS011;4897;43.570;27.832;2024-03-07T09:34:29;31.88;;;28.35;;
9716;SDS011;4897;43.570;27.832;2024-03-07T09:36:57;31.00;;;27.80;;
9716;SDS011;4897;43.570;27.832;2024-03-07T09:39:27;30.75;;;27.42;;
9716;SDS011;4897;43.570;27.832;2024-03-07T09:41:57;32.22;;;27.30;;
9716;SDS011;4897;43.570;27.832;2024-03-07T09:44:24;33.75;;;26.35;;
9716;SDS011;4897;43.570;27.832;2024-03-07T09:46:56;37.38;;;28.73;;
9716;SDS011;4897;43.570;27.832;2024-03-07T09:49:24;27.70;;;25.00;;
9716;SDS011;4897;43.570;27.832;2024-03-07T09:51:51;27.27;;;24.50;;
9716;SDS011;4897;43.570;27.832;2024-03-07T09:54:22;28.27;;;22.90;;
9716;SDS011;4897;43.570;27.832;2024-03-07T09:56:50;31.95;;;24.67;;
9716;SDS011;4897;43.570;27.832;2024-03-07T09:59:19;26.02;;;21.60;;
9716;SDS011;4897;43.570;27.832;2024-03-07T10:01:47;26.98;;;22.05;;
9716;SDS011;4897;43.570;27.832;2024-03-07T10:04:19;24.13;;;20.02;;
9716;SDS011;4897;43.570;27.832;2024-03-07T10:06:55;30.15;;;21.10;;
9716;SDS011;4897;43.570;27.832;2024-03-07T10:09:22;38.45;;;22.42;;
9716;SDS011;4897;43.570;27.832;2024-03-07T10:11:57;24.70;;;22.10;;
9716;SDS011;4897;43.570;27.832;2024-03-07T10:14:24;36.15;;;23.58;;
9716;SDS011;4897;43.570;27.832;2024-03-07T10:16:53;31.35;;;22.95;;
9716;SDS011;4897;43.570;27.832;2024-03-07T10:19:23;31.90;;;26.35;;
9716;SDS011;4897;43.570;27.832;2024-03-07T10:21:50;41.67;;;29.20;;
9716;SDS011;4897;43.570;27.832;2024-03-07T10:24:23;30.80;;;27.80;;
9716;SDS011;4897;43.570;27.832;2024-03-07T10:26:51;32.15;;;27.65;;
9716;SDS011;4897;43.570;27.832;2024-03-07T10:29:18;31.95;;;28.45;;
9716;SDS011;4897;43.570;27.832;2024-03-07T10:31:45;29.77;;;26.58;;
9716;SDS011;4897;43.570;27.832;2024-03-07T10:34:13;30.20;;;27.02;;
9716;SDS011;4897;43.570;27.832;2024-03-07T10:36:43;34.08;;;27.20;;
9716;SDS011;4897;43.570;27.832;2024-03-07T10:39:10;30.42;;;27.05;;
9716;SDS011;4897;43.570;27.832;2024-03-07T10:41:47;30.65;;;27.63;;
9716;SDS011;4897;43.570;27.832;2024-03-07T10:44:18;34.67;;;27.98;;
9716;SDS011;4897;43.570;27.832;2024-03-07T10:46:51;29.77;;;26.45;;
9716;SDS011;4897;43.570;27.832;2024-03-07T10:49:19;34.05;;;26.42;;
9716;SDS011;4897;43.570;27.832;2024-03-07T10:51:55;36.33;;;25.83;;
9716;SDS011;4897;43.570;27.832;2024-03-07T10:54:30;29.05;;;26.00;;
9716;SDS011;4897;43.570;27.832;2024-03-07T10:57:10;48.00;;;42.85;;
9716;SDS011;4897;43.570;27.832;2024-03-07T10:59:49;28.83;;;24.10;;
9716;SDS011;4897;43.570;27.832;2024-03-07T11:02:20;28.65;;;25.70;;
9716;SDS011;4897;43.570;27.832;2024-03-07T11:04:57;30.60;;;25.52;;
9716;SDS011;4897;43.570;27.832;2024-03-07T11:07:29;30.17;;;27.38;;
9716;SDS011;4897;43.570;27.832;2024-03-07T11:09:58;31.58;;;28.23;;
9716;SDS011;4897;43.570;27.832;2024-03-07T11:12:28;35.67;;;28.08;;
9716;SDS011;4897;43.570;27.832;2024-03-07T11:14:59;35.75;;;31.55;;
9716;SDS011;4897;43.570;27.832;2024-03-07T11:17:28;33.17;;;25.80;;
9716;SDS011;4897;43.570;27.832;2024-03-07T11:22:48;32.42;;;27.70;;
9716;SDS011;4897;43.570;27.832;2024-03-07T11:25:17;32.92;;;26.77;;
9716;SDS011;4897;43.570;27.832;2024-03-07T11:27:50;34.00;;;28.67;;
9716;SDS011;4897;43.570;27.832;2024-03-07T11:30:22;28.15;;;24.90;;
9716;SDS011;4897;43.570;27.832;2024-03-07T11:32:49;33.33;;;25.83;;
9716;SDS011;4897;43.570;27.832;2024-03-07T11:35:18;34.75;;;25.92;;
9716;SDS011;4897;43.570;27.832;2024-03-07T11:37:57;34.10;;;26.48;;
9716;SDS011;4897;43.570;27.832;2024-03-07T11:40:43;32.88;;;28.08;;
9716;SDS011;4897;43.570;27.832;2024-03-07T11:43:11;29.65;;;25.80;;
9716;SDS011;4897;43.570;27.832;2024-03-07T11:45:38;42.55;;;28.70;;
9716;SDS011;4897;43.570;27.832;2024-03-07T11:48:10;33.28;;;27.13;;
9716;SDS011;4897;43.570;27.832;2024-03-07T11:50:37;33.95;;;25.63;;
9716;SDS011;4897;43.570;27.832;2024-03-07T11:53:07;27.80;;;24.98;;
9716;SDS011;4897;43.570;27.832;2024-03-07T11:55:38;35.35;;;24.80;;
9716;SDS011;4897;43.570;27.832;2024-03-07T11:58:10;27.88;;;24.95;;
9716;SDS011;4897;43.570;27.832;2024-03-07T12:00:40;28.45;;;25.05;;
9716;SDS011;4897;43.570;27.832;2024-03-07T12:03:10;29.40;;;24.38;;
9716;SDS011;4897;43.570;27.832;2024-03-07T12:05:39;28.92;;;25.92;;
9716;SDS011;4897;43.570;27.832;2024-03-07T12:08:09;27.83;;;24.65;;
9716;SDS011;4897;43.570;27.832;2024-03-07T12:10:40;32.92;;;25.98;;
9716;SDS011;4897;43.570;27.832;2024-03-07T12:13:09;37.50;;;26.85;;
9716;SDS011;4897;43.570;27.832;2024-03-07T12:15:38;32.00;;;26.17;;
9716;SDS011;4897;43.570;27.832;2024-03-07T12:18:06;29.30;;;26.30;;
9716;SDS011;4897;43.570;27.832;2024-03-07T12:20:40;29.38;;;25.13;;
9716;SDS011;4897;43.570;27.832;2024-03-07T12:23:13;27.98;;;25.13;;
9716;SDS011;4897;43.570;27.832;2024-03-07T12:25:44;29.80;;;25.65;;
9716;SDS011;4897;43.570;27.832;2024-03-07T12:28:12;29.55;;;25.73;;
9716;SDS011;4897;43.570;27.832;2024-03-07T12:30:52;28.55;;;24.70;;
9716;SDS011;4897;43.570;27.832;2024-03-07T12:33:22;31.23;;;25.75;;
9716;SDS011;4897;43.570;27.832;2024-03-07T12:35:51;28.83;;;25.95;;
9716;SDS011;4897;43.570;27.832;2024-03-07T12:38:28;28.70;;;25.25;;
9716;SDS011;4897;43.570;27.832;2024-03-07T12:41:03;29.85;;;26.45;;
9716;SDS011;4897;43.570;27.832;2024-03-07T12:43:39;31.65;;;24.52;;
9716;SDS011;4897;43.570;27.832;2024-03-07T12:46:07;25.88;;;22.17;;
9716;SDS011;4897;43.570;27.832;2024-03-07T12:48:38;26.45;;;22.88;;
9716;SDS011;4897;43.570;27.832;2024-03-07T12:51:05;25.83;;;22.63;;
9716;SDS011;4897;43.570;27.832;2024-03-07T12:53:34;25.63;;;21.55;;
9716;SDS011;4897;43.570;27.832;2024-03-07T12:56:01;25.88;;;22.88;;
9716;SDS011;4897;43.570;27.832;2024-03-07T12:58:28;28.08;;;23.08;;
9716;SDS011;4897;43.570;27.832;2024-03-07T13:00:56;37.90;;;24.15;;
9716;SDS011;4897;43.570;27.832;2024-03-07T13:03:23;30.75;;;23.85;;
9716;SDS011;4897;43.570;27.832;2024-03-07T13:05:55;29.90;;;23.23;;
9716;SDS011;4897;43.570;27.832;2024-03-07T13:08:26;39.20;;;23.73;;
9716;SDS011;4897;43.570;27.832;2024-03-07T13:10:55;25.80;;;22.88;;
9716;SDS011;4897;43.570;27.832;2024-03-07T13:13:24;30.25;;;24.27;;
9716;SDS011;4897;43.570;27.832;2024-03-07T13:15:51;30.45;;;22.70;;
9716;SDS011;4897;43.570;27.832;2024-03-07T13:18:20;27.63;;;23.42;;
9716;SDS011;4897;43.570;27.832;2024-03-07T13:20:47;29.25;;;23.00;;
9716;SDS011;4897;43.570;27.832;2024-03-07T13:23:20;31.98;;;23.63;;
9716;SDS011;4897;43.570;27.832;2024-03-07T13:25:52;28.45;;;23.20;;
9716;SDS011;4897;43.570;27.832;2024-03-07T13:28:23;27.70;;;22.05;;
9716;SDS011;4897;43.570;27.832;2024-03-07T13:30:53;29.27;;;22.83;;
9716;SDS011;4897;43.570;27.832;2024-03-07T13:33:23;33.40;;;23.67;;
9716;SDS011;4897;43.570;27.832;2024-03-07T13:35:53;30.05;;;25.00;;
9716;SDS011;4897;43.570;27.832;2024-03-07T13:38:23;29.88;;;25.27;;
9716;SDS011;4897;43.570;27.832;2024-03-07T13:40:53;26.23;;;23.42;;
9716;SDS011;4897;43.570;27.832;2024-03-07T13:43:23;27.70;;;22.35;;
9716;SDS011;4897;43.570;27.832;2024-03-07T13:45:50;27.90;;;23.60;;
9716;SDS011;4897;43.570;27.832;2024-03-07T13:48:18;27.33;;;24.02;;
9716;SDS011;4897;43.570;27.832;2024-03-07T13:50:45;29.13;;;23.38;;
9716;SDS011;4897;43.570;27.832;2024-03-07T13:53:14;27.15;;;24.17;;
9716;SDS011;4897;43.570;27.832;2024-03-07T13:55:50;30.98;;;24.83;;
9716;SDS011;4897;43.570;27.832;2024-03-07T13:58:28;27.35;;;24.10;;
9716;SDS011;4897;43.570;27.832;2024-03-07T14:01:20;27.27;;;22.65;;
9716;SDS011;4897;43.570;27.832;2024-03-07T14:04:07;31.50;;;22.95;;
9716;SDS011;4897;43.570;27.832;2024-03-07T14:07:05;30.60;;;24.58;;
9716;SDS011;4897;43.570;27.832;2024-03-07T14:10:02;33.70;;;25.73;;
9716;SDS011;4897;43.570;27.832;2024-03-07T14:13:04;26.70;;;23.80;;
9716;SDS011;4897;43.570;27.832;2024-03-07T14:16:12;29.45;;;25.40;;
9716;SDS011;4897;43.570;27.832;2024-03-07T14:19:12;32.05;;;25.88;;
9716;SDS011;4897;43.570;27.832;2024-03-07T14:22:02;27.63;;;24.63;;
9716;SDS011;4897;43.570;27.832;2024-03-07T14:24:55;28.17;;;23.15;;
9716;SDS011;4897;43.570;27.832;2024-03-07T14:27:43;37.80;;;24.85;;
9716;SDS011;4897;43.570;27.832;2024-03-07T14:30:23;28.83;;;24.05;;
9716;SDS011;4897;43.570;27.832;2024-03-07T14:33:07;28.23;;;24.10;;
9716;SDS011;4897;43.570;27.832;2024-03-07T14:35:35;37.08;;;27.50;;
9716;SDS011;4897;43.570;27.832;2024-03-07T14:38:25;39.15;;;25.75;;
9716;SDS011;4897;43.570;27.832;2024-03-07T14:40:57;33.60;;;23.52;;
9716;SDS011;4897;43.570;27.832;2024-03-07T14:43:24;35.05;;;25.92;;
9716;SDS011;4897;43.570;27.832;2024-03-07T14:45:51;30.92;;;25.70;;
9716;SDS011;4897;43.570;27.832;2024-03-07T14:48:23;31.08;;;25.42;;
9716;SDS011;4897;43.570;27.832;2024-03-07T14:50:50;34.50;;;25.92;;
9716;SDS011;4897;43.570;27.832;2024-03-07T14:53:18;29.80;;;25.33;;
9716;SDS011;4897;43.570;27.832;2024-03-07T14:55:46;29.67;;;25.95;;